sensor_id;sensor_type;location;lat;lon;timestamp;P1;durP1;ratioP1;P2;durP2;ratioP2
59408;SDS011;45213;32.654;-115.458;2023-01-24T00:00:55;16.77;;;1.80;;
59408;SDS011;45213;32.654;-115.458;2023-01-24T00:03:22;12.73;;;2.30;;
59408;SDS011;45213;32.654;-115.458;2023-01-24T00:05:48;19.63;;;2.65;;
59408;SDS011;45213;32.654;-115.458;2023-01-24T00:08:16;15.50;;;2.30;;
59408;SDS011;45213;32.654;-115.458;2023-01-24T00:10:45;17.67;;;2.00;;
59408;SDS011;45213;32.654;-115.458;2023-01-24T00:13:13;16.58;;;1.80;;
59408;SDS011;45213;32.654;-115.458;2023-01-24T00:15:40;31.20;;;3.10;;
59408;SDS011;45213;32.654;-115.458;2023-01-24T00:18:07;23.35;;;2.20;;
59408;SDS011;45213;32.654;-115.458;2023-01-24T00:20:34;18.13;;;3.42;;
59408;SDS011;45213;32.654;-115.458;2023-01-24T00:23:01;16.05;;;2.05;;
59408;SDS011;45213;32.654;-115.458;2023-01-24T00:25:27;13.38;;;1.55;;
59408;SDS011;45213;32.654;-115.458;2023-01-24T00:27:54;17.23;;;2.50;;
59408;SDS011;45213;32.654;-115.458;2023-01-24T00:30:20;16.63;;;2.90;;
59408;SDS011;45213;32.654;-115.458;2023-01-24T00:32:47;17.58;;;2.33;;
59408;SDS011;45213;32.654;-115.458;2023-01-24T00:35:14;16.73;;;2.75;;
59408;SDS011;45213;32.654;-115.458;2023-01-24T00:37:40;15.18;;;2.75;;
59408;SDS011;45213;32.654;-115.458;2023-01-24T00:40:08;14.73;;;1.77;;
59408;SDS011;45213;32.654;-115.458;2023-01-24T00:42:35;11.65;;;2.22;;
59408;SDS011;45213;32.654;-115.458;2023-01-24T00:45:01;18.48;;;2.15;;
59408;SDS011;45213;32.654;-115.458;2023-01-24T00:47:28;13.32;;;1.80;;
59408;SDS011;45213;32.654;-115.458;2023-01-24T00:49:55;18.58;;;3.25;;
59408;SDS011;45213;32.654;-115.458;2023-01-24T00:52:21;10.82;;;1.90;;
59408;SDS011;45213;32.654;-115.458;2023-01-24T00:54:48;10.38;;;1.75;;
59408;SDS011;45213;32.654;-115.458;2023-01-24T00:57:14;14.57;;;2.08;;
59408;SDS011;45213;32.654;-115.458;2023-01-24T00:59:41;11.70;;;1.90;;
59408;SDS011;45213;32.654;-115.458;2023-01-24T01:02:08;18.50;;;2.00;;
59408;SDS011;45213;32.654;-115.458;2023-01-24T01:04:34;13.60;;;1.83;;
59408;SDS011;45213;32.654;-115.458;2023-01-24T01:07:01;20.58;;;2.30;;
59408;SDS011;45213;32.654;-115.458;2023-01-24T01:09:27;18.25;;;2.47;;
59408;SDS011;45213;32.654;-115.458;2023-01-24T01:11:54;15.57;;;2.28;;
59408;SDS011;45213;32.654;-115.458;2023-01-24T01:14:20;24.80;;;2.53;;
59408;SDS011;45213;32.654;-115.458;2023-01-24T01:16:47;13.57;;;2.30;;
59408;SDS011;45213;32.654;-115.458;2023-01-24T01:19:14;19.80;;;3.33;;
59408;SDS011;45213;32.654;-115.458;2023-01-24T01:21:41;19.38;;;2.47;;
59408;SDS011;45213;32.654;-115.458;2023-01-24T01:24:10;16.95;;;2.67;;
59408;SDS011;45213;32.654;-115.458;2023-01-24T01:26:37;23.50;;;2.65;;
59408;SDS011;45213;32.654;-115.458;2023-01-24T01:29:03;12.35;;;1.90;;
59408;SDS011;45213;32.654;-115.458;2023-01-24T01:31:30;18.67;;;4.07;;
59408;SDS011;45213;32.654;-115.458;2023-01-24T01:33:56;20.77;;;3.45;;
59408;SDS011;45213;32.654;-115.458;2023-01-24T01:36:23;25.02;;;2.67;;
59408;SDS011;45213;32.654;-115.458;2023-01-24T01:38:50;26.35;;;2.42;;
59408;SDS011;45213;32.654;-115.458;2023-01-24T01:41:17;23.08;;;2.97;;
59408;SDS011;45213;32.654;-115.458;2023-01-24T01:43:43;26.23;;;2.97;;
59408;SDS011;45213;32.654;-115.458;2023-01-24T01:46:37;21.42;;;2.38;;
59408;SDS011;45213;32.654;-115.458;2023-01-24T01:51:50;18.75;;;1.85;;
59408;SDS011;45213;32.654;-115.458;2023-01-24T01:57:03;20.92;;;2.55;;
59408;SDS011;45213;32.654;-115.458;2023-01-24T01:59:35;16.73;;;2.10;;
59408;SDS011;45213;32.654;-115.458;2023-01-24T02:04:35;14.90;;;1.77;;
59408;SDS011;45213;32.654;-115.458;2023-01-24T02:07:14;28.92;;;2.78;;
59408;SDS011;45213;32.654;-115.458;2023-01-24T02:09:49;21.83;;;4.10;;
59408;SDS011;45213;32.654;-115.458;2023-01-24T02:12:23;26.05;;;4.88;;
59408;SDS011;45213;32.654;-115.458;2023-01-24T02:14:53;28.75;;;5.00;;
59408;SDS011;45213;32.654;-115.458;2023-01-24T02:17:41;20.00;;;3.38;;
59408;SDS011;45213;32.654;-115.458;2023-01-24T02:28:40;15.88;;;4.13;;
59408;SDS011;45213;32.654;-115.458;2023-01-24T02:31:11;23.45;;;3.08;;
59408;SDS011;45213;32.654;-115.458;2023-01-24T02:33:38;20.52;;;3.47;;
59408;SDS011;45213;32.654;-115.458;2023-01-24T02:39:18;27.77;;;3.63;;
59408;SDS011;45213;32.654;-115.458;2023-01-24T02:41:50;18.95;;;3.55;;
59408;SDS011;45213;32.654;-115.458;2023-01-24T02:44:32;32.60;;;4.15;;
59408;SDS011;45213;32.654;-115.458;2023-01-24T02:47:01;16.02;;;3.78;;
59408;SDS011;45213;32.654;-115.458;2023-01-24T02:49:28;11.80;;;3.00;;
59408;SDS011;45213;32.654;-115.458;2023-01-24T02:51:55;17.73;;;3.45;;
59408;SDS011;45213;32.654;-115.458;2023-01-24T02:54:50;25.48;;;4.85;;
59408;SDS011;45213;32.654;-115.458;2023-01-24T02:57:17;14.50;;;3.95;;
59408;SDS011;45213;32.654;-115.458;2023-01-24T03:00:04;24.02;;;4.13;;
59408;SDS011;45213;32.654;-115.458;2023-01-24T03:02:32;18.40;;;3.92;;
59408;SDS011;45213;32.654;-115.458;2023-01-24T03:04:59;20.75;;;4.07;;
59408;SDS011;45213;32.654;-115.458;2023-01-24T03:07:25;23.67;;;4.00;;
59408;SDS011;45213;32.654;-115.458;2023-01-24T03:09:57;14.95;;;2.85;;
59408;SDS011;45213;32.654;-115.458;2023-01-24T03:12:25;18.98;;;1.90;;
59408;SDS011;45213;32.654;-115.458;2023-01-24T03:15:11;22.65;;;2.35;;
59408;SDS011;45213;32.654;-115.458;2023-01-24T03:17:59;16.38;;;2.22;;
59408;SDS011;45213;32.654;-115.458;2023-01-24T03:20:46;14.35;;;1.98;;
59408;SDS011;45213;32.654;-115.458;2023-01-24T03:23:31;12.73;;;1.50;;
59408;SDS011;45213;32.654;-115.458;2023-01-24T03:26:16;16.15;;;1.85;;
59408;SDS011;45213;32.654;-115.458;2023-01-24T03:29:03;11.27;;;1.45;;
59408;SDS011;45213;32.654;-115.458;2023-01-24T03:31:48;11.80;;;1.73;;
59408;SDS011;45213;32.654;-115.458;2023-01-24T03:34:33;10.98;;;1.48;;
59408;SDS011;45213;32.654;-115.458;2023-01-24T03:37:18;9.32;;;1.38;;
59408;SDS011;45213;32.654;-115.458;2023-01-24T03:40:07;11.52;;;1.55;;
59408;SDS011;45213;32.654;-115.458;2023-01-24T03:42:37;15.88;;;1.83;;
59408;SDS011;45213;32.654;-115.458;2023-01-24T03:45:18;9.32;;;1.60;;
59408;SDS011;45213;32.654;-115.458;2023-01-24T03:47:52;11.32;;;1.42;;
59408;SDS011;45213;32.654;-115.458;2023-01-24T03:50:34;15.68;;;2.53;;
59408;SDS011;45213;32.654;-115.458;2023-01-24T03:53:28;12.02;;;2.03;;
59408;SDS011;45213;32.654;-115.458;2023-01-24T03:55:58;13.55;;;1.90;;
59408;SDS011;45213;32.654;-115.458;2023-01-24T03:58:30;7.88;;;1.77;;
59408;SDS011;45213;32.654;-115.458;2023-01-24T04:01:00;18.20;;;2.10;;
59408;SDS011;45213;32.654;-115.458;2023-01-24T04:03:55;20.63;;;2.00;;
59408;SDS011;45213;32.654;-115.458;2023-01-24T04:06:22;12.00;;;1.45;;
59408;SDS011;45213;32.654;-115.458;2023-01-24T04:08:50;10.77;;;1.60;;
59408;SDS011;45213;32.654;-115.458;2023-01-24T04:11:17;6.45;;;1.10;;
59408;SDS011;45213;32.654;-115.458;2023-01-24T04:13:47;10.57;;;1.60;;
59408;SDS011;45213;32.654;-115.458;2023-01-24T04:16:14;14.40;;;1.70;;
59408;SDS011;45213;32.654;-115.458;2023-01-24T04:18:50;12.00;;;1.90;;
59408;SDS011;45213;32.654;-115.458;2023-01-24T04:21:20;11.77;;;2.28;;
59408;SDS011;45213;32.654;-115.458;2023-01-24T04:23:46;14.40;;;2.13;;
59408;SDS011;45213;32.654;-115.458;2023-01-24T04:26:14;12.23;;;1.73;;
59408;SDS011;45213;32.654;-115.458;2023-01-24T04:28:40;11.50;;;1.73;;
59408;SDS011;45213;32.654;-115.458;2023-01-24T04:31:08;20.73;;;2.67;;
59408;SDS011;45213;32.654;-115.458;2023-01-24T04:33:54;13.40;;;2.00;;
59408;SDS011;45213;32.654;-115.458;2023-01-24T04:36:23;13.23;;;3.13;;
59408;SDS011;45213;32.654;-115.458;2023-01-24T04:38:50;12.70;;;2.63;;
59408;SDS011;45213;32.654;-115.458;2023-01-24T04:41:23;13.65;;;2.50;;
59408;SDS011;45213;32.654;-115.458;2023-01-24T04:43:52;17.02;;;2.67;;
59408;SDS011;45213;32.654;-115.458;2023-01-24T04:46:19;13.52;;;2.35;;
59408;SDS011;45213;32.654;-115.458;2023-01-24T04:48:53;13.48;;;2.67;;
59408;SDS011;45213;32.654;-115.458;2023-01-24T04:51:22;14.25;;;2.30;;
59408;SDS011;45213;32.654;-115.458;2023-01-24T04:53:49;11.20;;;2.50;;
59408;SDS011;45213;32.654;-115.458;2023-01-24T04:56:19;15.05;;;4.18;;
59408;SDS011;45213;32.654;-115.458;2023-01-24T04:58:46;12.57;;;3.28;;
59408;SDS011;45213;32.654;-115.458;2023-01-24T05:01:13;10.82;;;2.90;;
59408;SDS011;45213;32.654;-115.458;2023-01-24T05:03:52;34.42;;;4.78;;
59408;SDS011;45213;32.654;-115.458;2023-01-24T05:06:25;27.50;;;4.03;;
59408;SDS011;45213;32.654;-115.458;2023-01-24T05:08:53;20.75;;;2.88;;
59408;SDS011;45213;32.654;-115.458;2023-01-24T05:11:26;12.02;;;1.80;;
59408;SDS011;45213;32.654;-115.458;2023-01-24T05:13:57;7.18;;;1.73;;
59408;SDS011;45213;32.654;-115.458;2023-01-24T05:16:27;7.30;;;1.48;;
59408;SDS011;45213;32.654;-115.458;2023-01-24T05:18:57;19.88;;;2.08;;
59408;SDS011;45213;32.654;-115.458;2023-01-24T05:21:27;11.38;;;1.77;;
59408;SDS011;45213;32.654;-115.458;2023-01-24T05:23:56;15.32;;;1.88;;
59408;SDS011;45213;32.654;-115.458;2023-01-24T05:26:26;18.35;;;2.10;;
59408;SDS011;45213;32.654;-115.458;2023-01-24T05:28:57;19.52;;;2.42;;
59408;SDS011;45213;32.654;-115.458;2023-01-24T05:31:28;17.15;;;2.42;;
59408;SDS011;45213;32.654;-115.458;2023-01-24T05:36:30;15.77;;;3.63;;
59408;SDS011;45213;32.654;-115.458;2023-01-24T05:39:03;11.05;;;3.15;;
59408;SDS011;45213;32.654;-115.458;2023-01-24T05:41:34;16.50;;;4.22;;
59408;SDS011;45213;32.654;-115.458;2023-01-24T05:44:05;19.33;;;5.40;;
59408;SDS011;45213;32.654;-115.458;2023-01-24T05:49:10;14.38;;;3.90;;
59408;SDS011;45213;32.654;-115.458;2023-01-24T05:51:37;16.95;;;3.35;;
59408;SDS011;45213;32.654;-115.458;2023-01-24T05:54:04;16.35;;;2.90;;
59408;SDS011;45213;32.654;-115.458;2023-01-24T05:56:51;15.45;;;2.95;;
59408;SDS011;45213;32.654;-115.458;2023-01-24T05:59:18;10.02;;;3.17;;
59408;SDS011;45213;32.654;-115.458;2023-01-24T06:01:45;11.73;;;2.90;;
59408;SDS011;45213;32.654;-115.458;2023-01-24T06:04:13;10.73;;;2.75;;
59408;SDS011;45213;32.654;-115.458;2023-01-24T06:06:39;10.63;;;2.40;;
59408;SDS011;45213;32.654;-115.458;2023-01-24T06:09:07;8.05;;;1.88;;
59408;SDS011;45213;32.654;-115.458;2023-01-24T06:11:34;9.93;;;1.23;;
59408;SDS011;45213;32.654;-115.458;2023-01-24T06:14:09;13.73;;;1.30;;
59408;SDS011;45213;32.654;-115.458;2023-01-24T06:16:36;6.78;;;1.08;;
59408;SDS011;45213;32.654;-115.458;2023-01-24T06:19:05;8.00;;;1.30;;
59408;SDS011;45213;32.654;-115.458;2023-01-24T06:21:53;12.52;;;1.70;;
59408;SDS011;45213;32.654;-115.458;2023-01-24T06:24:40;9.35;;;1.23;;
59408;SDS011;45213;32.654;-115.458;2023-01-24T06:27:22;8.23;;;1.63;;
59408;SDS011;45213;32.654;-115.458;2023-01-24T06:29:49;11.75;;;2.63;;
59408;SDS011;45213;32.654;-115.458;2023-01-24T06:35:11;12.35;;;3.70;;
59408;SDS011;45213;32.654;-115.458;2023-01-24T06:38:06;12.05;;;4.40;;
59408;SDS011;45213;32.654;-115.458;2023-01-24T06:40:59;11.80;;;3.58;;
59408;SDS011;45213;32.654;-115.458;2023-01-24T06:43:27;15.63;;;3.75;;
59408;SDS011;45213;32.654;-115.458;2023-01-24T06:45:54;13.00;;;3.97;;
59408;SDS011;45213;32.654;-115.458;2023-01-24T06:48:21;12.98;;;3.38;;
59408;SDS011;45213;32.654;-115.458;2023-01-24T06:50:47;13.05;;;2.80;;
59408;SDS011;45213;32.654;-115.458;2023-01-24T06:53:14;14.68;;;3.05;;
59408;SDS011;45213;32.654;-115.458;2023-01-24T06:55:44;8.88;;;2.55;;
59408;SDS011;45213;32.654;-115.458;2023-01-24T06:58:11;11.98;;;2.40;;
59408;SDS011;45213;32.654;-115.458;2023-01-24T07:00:39;11.93;;;2.22;;
59408;SDS011;45213;32.654;-115.458;2023-01-24T07:03:06;9.40;;;2.05;;
59408;SDS011;45213;32.654;-115.458;2023-01-24T07:05:34;8.20;;;2.10;;
59408;SDS011;45213;32.654;-115.458;2023-01-24T07:08:02;8.77;;;1.80;;
59408;SDS011;45213;32.654;-115.458;2023-01-24T07:10:29;9.45;;;1.77;;
59408;SDS011;45213;32.654;-115.458;2023-01-24T07:12:56;4.25;;;1.77;;
59408;SDS011;45213;32.654;-115.458;2023-01-24T07:15:22;7.60;;;1.73;;
59408;SDS011;45213;32.654;-115.458;2023-01-24T07:17:49;8.50;;;1.15;;
59408;SDS011;45213;32.654;-115.458;2023-01-24T07:20:16;2.63;;;0.90;;
59408;SDS011;45213;32.654;-115.458;2023-01-24T07:22:43;4.28;;;1.27;;
59408;SDS011;45213;32.654;-115.458;2023-01-24T07:25:17;5.32;;;1.02;;
59408;SDS011;45213;32.654;-115.458;2023-01-24T07:27:46;8.02;;;1.13;;
59408;SDS011;45213;32.654;-115.458;2023-01-24T07:30:13;7.63;;;1.08;;
59408;SDS011;45213;32.654;-115.458;2023-01-24T07:32:40;6.35;;;1.10;;
59408;SDS011;45213;32.654;-115.458;2023-01-24T07:35:07;4.00;;;1.00;;
59408;SDS011;45213;32.654;-115.458;2023-01-24T07:37:33;4.50;;;0.82;;
59408;SDS011;45213;32.654;-115.458;2023-01-24T07:40:00;5.68;;;0.75;;
59408;SDS011;45213;32.654;-115.458;2023-01-24T07:42:27;6.35;;;1.33;;
59408;SDS011;45213;32.654;-115.458;2023-01-24T07:44:54;8.00;;;1.20;;
59408;SDS011;45213;32.654;-115.458;2023-01-24T07:47:22;3.67;;;0.90;;
59408;SDS011;45213;32.654;-115.458;2023-01-24T07:49:52;5.55;;;1.00;;
59408;SDS011;45213;32.654;-115.458;2023-01-24T07:52:18;7.35;;;1.10;;
59408;SDS011;45213;32.654;-115.458;2023-01-24T07:54:45;6.07;;;1.10;;
59408;SDS011;45213;32.654;-115.458;2023-01-24T07:57:11;4.35;;;1.02;;
59408;SDS011;45213;32.654;-115.458;2023-01-24T07:59:38;3.45;;;0.98;;
59408;SDS011;45213;32.654;-115.458;2023-01-24T08:02:05;6.35;;;1.42;;
59408;SDS011;45213;32.654;-115.458;2023-01-24T08:04:31;11.23;;;1.90;;
59408;SDS011;45213;32.654;-115.458;2023-01-24T08:06:58;6.05;;;1.15;;
59408;SDS011;45213;32.654;-115.458;2023-01-24T08:09:43;11.02;;;1.33;;
59408;SDS011;45213;32.654;-115.458;2023-01-24T08:12:11;5.68;;;1.05;;
59408;SDS011;45213;32.654;-115.458;2023-01-24T08:14:37;6.97;;;1.23;;
59408;SDS011;45213;32.654;-115.458;2023-01-24T08:17:04;5.53;;;1.17;;
59408;SDS011;45213;32.654;-115.458;2023-01-24T08:19:31;4.25;;;0.90;;
59408;SDS011;45213;32.654;-115.458;2023-01-24T08:21:57;6.45;;;1.10;;
59408;SDS011;45213;32.654;-115.458;2023-01-24T08:24:24;3.13;;;0.80;;
59408;SDS011;45213;32.654;-115.458;2023-01-24T08:26:51;8.90;;;1.00;;
59408;SDS011;45213;32.654;-115.458;2023-01-24T08:29:18;9.05;;;0.90;;
59408;SDS011;45213;32.654;-115.458;2023-01-24T08:31:44;7.38;;;1.17;;
59408;SDS011;45213;32.654;-115.458;2023-01-24T08:34:11;9.90;;;0.73;;
59408;SDS011;45213;32.654;-115.458;2023-01-24T08:36:37;7.07;;;0.98;;
59408;SDS011;45213;32.654;-115.458;2023-01-24T08:39:04;4.45;;;1.38;;
59408;SDS011;45213;32.654;-115.458;2023-01-24T08:41:31;2.63;;;0.77;;
59408;SDS011;45213;32.654;-115.458;2023-01-24T08:43:57;3.60;;;0.80;;
59408;SDS011;45213;32.654;-115.458;2023-01-24T08:46:24;8.45;;;1.33;;
59408;SDS011;45213;32.654;-115.458;2023-01-24T08:48:52;4.57;;;0.70;;
59408;SDS011;45213;32.654;-115.458;2023-01-24T08:51:18;6.50;;;1.25;;
59408;SDS011;45213;32.654;-115.458;2023-01-24T08:53:45;3.30;;;1.00;;
59408;SDS011;45213;32.654;-115.458;2023-01-24T08:56:12;5.95;;;1.00;;
59408;SDS011;45213;32.654;-115.458;2023-01-24T08:58:38;5.18;;;0.95;;
59408;SDS011;45213;32.654;-115.458;2023-01-24T09:01:06;4.85;;;0.80;;
59408;SDS011;45213;32.654;-115.458;2023-01-24T09:03:33;9.23;;;1.13;;
59408;SDS011;45213;32.654;-115.458;2023-01-24T09:06:00;7.35;;;1.05;;
59408;SDS011;45213;32.654;-115.458;2023-01-24T09:08:26;6.57;;;1.10;;
59408;SDS011;45213;32.654;-115.458;2023-01-24T09:10:53;6.25;;;1.20;;
59408;SDS011;45213;32.654;-115.458;2023-01-24T09:13:19;4.57;;;0.90;;
59408;SDS011;45213;32.654;-115.458;2023-01-24T09:15:46;8.50;;;1.40;;
59408;SDS011;45213;32.654;-115.458;2023-01-24T09:18:12;6.45;;;1.33;;
59408;SDS011;45213;32.654;-115.458;2023-01-24T09:20:39;12.77;;;1.63;;
59408;SDS011;45213;32.654;-115.458;2023-01-24T09:23:12;6.45;;;1.15;;
59408;SDS011;45213;32.654;-115.458;2023-01-24T09:25:41;4.68;;;1.10;;
59408;SDS011;45213;32.654;-115.458;2023-01-24T09:28:14;6.07;;;1.05;;
59408;SDS011;45213;32.654;-115.458;2023-01-24T09:30:41;10.10;;;1.42;;
59408;SDS011;45213;32.654;-115.458;2023-01-24T09:33:08;5.28;;;1.20;;
59408;SDS011;45213;32.654;-115.458;2023-01-24T09:35:34;4.10;;;1.38;;
59408;SDS011;45213;32.654;-115.458;2023-01-24T09:38:01;7.25;;;1.45;;
59408;SDS011;45213;32.654;-115.458;2023-01-24T09:40:29;5.70;;;1.15;;
59408;SDS011;45213;32.654;-115.458;2023-01-24T09:46:16;8.57;;;1.85;;
59408;SDS011;45213;32.654;-115.458;2023-01-24T09:48:45;5.50;;;1.95;;
59408;SDS011;45213;32.654;-115.458;2023-01-24T09:51:15;14.13;;;2.40;;
59408;SDS011;45213;32.654;-115.458;2023-01-24T09:53:49;9.27;;;1.98;;
59408;SDS011;45213;32.654;-115.458;2023-01-24T09:56:21;17.90;;;6.07;;
59408;SDS011;45213;32.654;-115.458;2023-01-24T09:59:02;16.27;;;7.32;;
59408;SDS011;45213;32.654;-115.458;2023-01-24T10:01:37;20.75;;;9.30;;
59408;SDS011;45213;32.654;-115.458;2023-01-24T10:04:16;17.42;;;9.60;;
59408;SDS011;45213;32.654;-115.458;2023-01-24T10:09:43;19.02;;;8.88;;
59408;SDS011;45213;32.654;-115.458;2023-01-24T10:23:42;20.70;;;9.13;;
59408;SDS011;45213;32.654;-115.458;2023-01-24T10:26:19;18.25;;;9.63;;
59408;SDS011;45213;32.654;-115.458;2023-01-24T10:28:54;13.32;;;8.88;;
59408;SDS011;45213;32.654;-115.458;2023-01-24T10:31:25;16.30;;;9.15;;
59408;SDS011;45213;32.654;-115.458;2023-01-24T10:33:56;16.83;;;9.40;;
59408;SDS011;45213;32.654;-115.458;2023-01-24T10:36:35;17.10;;;8.00;;
59408;SDS011;45213;32.654;-115.458;2023-01-24T10:39:29;13.07;;;8.45;;
59408;SDS011;45213;32.654;-115.458;2023-01-24T10:41:56;17.73;;;7.65;;
59408;SDS011;45213;32.654;-115.458;2023-01-24T10:44:26;14.10;;;7.53;;
59408;SDS011;45213;32.654;-115.458;2023-01-24T10:47:04;16.10;;;7.53;;
59408;SDS011;45213;32.654;-115.458;2023-01-24T10:49:37;14.13;;;7.93;;
59408;SDS011;45213;32.654;-115.458;2023-01-24T10:52:13;13.48;;;7.40;;
59408;SDS011;45213;32.654;-115.458;2023-01-24T10:54:51;17.13;;;7.50;;
59408;SDS011;45213;32.654;-115.458;2023-01-24T10:57:23;16.67;;;7.03;;
59408;SDS011;45213;32.654;-115.458;2023-01-24T11:00:24;17.83;;;7.18;;
59408;SDS011;45213;32.654;-115.458;2023-01-24T11:03:03;11.23;;;6.53;;
59408;SDS011;45213;32.654;-115.458;2023-01-24T11:05:48;12.95;;;6.30;;
59408;SDS011;45213;32.654;-115.458;2023-01-24T11:08:20;13.63;;;5.72;;
59408;SDS011;45213;32.654;-115.458;2023-01-24T11:10:52;13.75;;;5.07;;
59408;SDS011;45213;32.654;-115.458;2023-01-24T11:13:29;8.75;;;2.75;;
59408;SDS011;45213;32.654;-115.458;2023-01-24T11:16:20;8.45;;;2.80;;
59408;SDS011;45213;32.654;-115.458;2023-01-24T11:18:57;8.40;;;2.90;;
59408;SDS011;45213;32.654;-115.458;2023-01-24T11:21:27;5.57;;;2.42;;
59408;SDS011;45213;32.654;-115.458;2023-01-24T11:24:09;12.95;;;2.95;;
59408;SDS011;45213;32.654;-115.458;2023-01-24T11:29:28;4.82;;;2.05;;
59408;SDS011;45213;32.654;-115.458;2023-01-24T11:31:55;7.72;;;2.15;;
59408;SDS011;45213;32.654;-115.458;2023-01-24T11:48:18;6.47;;;2.33;;
59408;SDS011;45213;32.654;-115.458;2023-01-24T11:56:34;12.38;;;2.78;;
59408;SDS011;45213;32.654;-115.458;2023-01-24T12:10:42;15.23;;;5.57;;
59408;SDS011;45213;32.654;-115.458;2023-01-24T12:16:17;20.80;;;6.55;;
59408;SDS011;45213;32.654;-115.458;2023-01-24T12:21:35;14.70;;;6.20;;
59408;SDS011;45213;32.654;-115.458;2023-01-24T12:27:01;17.48;;;6.57;;
59408;SDS011;45213;32.654;-115.458;2023-01-24T12:29:33;19.92;;;6.82;;
59408;SDS011;45213;32.654;-115.458;2023-01-24T12:40:55;21.00;;;7.40;;
59408;SDS011;45213;32.654;-115.458;2023-01-24T12:46:19;18.55;;;7.45;;
59408;SDS011;45213;32.654;-115.458;2023-01-24T12:49:13;16.52;;;6.68;;
59408;SDS011;45213;32.654;-115.458;2023-01-24T12:54:42;18.98;;;6.82;;
59408;SDS011;45213;32.654;-115.458;2023-01-24T13:00:13;13.85;;;6.00;;
59408;SDS011;45213;32.654;-115.458;2023-01-24T13:03:01;24.42;;;6.90;;
59408;SDS011;45213;32.654;-115.458;2023-01-24T13:11:24;20.65;;;6.95;;
59408;SDS011;45213;32.654;-115.458;2023-01-24T13:14:03;17.38;;;7.55;;
59408;SDS011;45213;32.654;-115.458;2023-01-24T13:28:07;17.20;;;7.83;;
59408;SDS011;45213;32.654;-115.458;2023-01-24T13:30:43;20.17;;;6.40;;
59408;SDS011;45213;32.654;-115.458;2023-01-24T13:33:40;15.27;;;6.90;;
59408;SDS011;45213;32.654;-115.458;2023-01-24T13:36:19;20.40;;;7.88;;
59408;SDS011;45213;32.654;-115.458;2023-01-24T13:38:48;16.83;;;7.28;;
59408;SDS011;45213;32.654;-115.458;2023-01-24T13:41:38;21.17;;;7.50;;
59408;SDS011;45213;32.654;-115.458;2023-01-24T13:51:58;37.92;;;15.15;;
59408;SDS011;45213;32.654;-115.458;2023-01-24T14:03:04;45.47;;;18.48;;
59408;SDS011;45213;32.654;-115.458;2023-01-24T14:10:49;35.13;;;14.75;;
59408;SDS011;45213;32.654;-115.458;2023-01-24T14:18:57;38.28;;;13.98;;
59408;SDS011;45213;32.654;-115.458;2023-01-24T14:21:27;38.55;;;13.13;;
59408;SDS011;45213;32.654;-115.458;2023-01-24T14:24:01;35.42;;;14.07;;
59408;SDS011;45213;32.654;-115.458;2023-01-24T14:26:49;30.80;;;12.48;;
59408;SDS011;45213;32.654;-115.458;2023-01-24T14:29:18;36.47;;;12.02;;
59408;SDS011;45213;32.654;-115.458;2023-01-24T14:31:46;41.20;;;12.50;;
59408;SDS011;45213;32.654;-115.458;2023-01-24T14:34:53;53.40;;;13.20;;
59408;SDS011;45213;32.654;-115.458;2023-01-24T14:37:16;35.95;;;11.73;;
59408;SDS011;45213;32.654;-115.458;2023-01-24T14:39:44;36.33;;;11.60;;
59408;SDS011;45213;32.654;-115.458;2023-01-24T14:42:12;31.35;;;11.10;;
59408;SDS011;45213;32.654;-115.458;2023-01-24T14:47:24;32.92;;;11.52;;
59408;SDS011;45213;32.654;-115.458;2023-01-24T14:49:59;35.25;;;11.93;;
59408;SDS011;45213;32.654;-115.458;2023-01-24T14:52:31;36.38;;;12.60;;
59408;SDS011;45213;32.654;-115.458;2023-01-24T14:54:59;37.53;;;12.70;;
59408;SDS011;45213;32.654;-115.458;2023-01-24T14:57:46;40.83;;;12.52;;
59408;SDS011;45213;32.654;-115.458;2023-01-24T15:02:55;43.58;;;13.75;;
59408;SDS011;45213;32.654;-115.458;2023-01-24T15:07:58;64.63;;;15.38;;
59408;SDS011;45213;32.654;-115.458;2023-01-24T15:10:31;49.47;;;13.65;;
59408;SDS011;45213;32.654;-115.458;2023-01-24T15:13:03;60.53;;;15.57;;
59408;SDS011;45213;32.654;-115.458;2023-01-24T15:15:34;65.90;;;15.90;;
59408;SDS011;45213;32.654;-115.458;2023-01-24T15:18:03;55.72;;;15.40;;
59408;SDS011;45213;32.654;-115.458;2023-01-24T15:20:32;79.07;;;16.65;;
59408;SDS011;45213;32.654;-115.458;2023-01-24T15:23:00;57.92;;;16.58;;
59408;SDS011;45213;32.654;-115.458;2023-01-24T15:25:30;61.45;;;21.20;;
59408;SDS011;45213;32.654;-115.458;2023-01-24T15:30:55;52.28;;;20.77;;
59408;SDS011;45213;32.654;-115.458;2023-01-24T15:33:39;78.63;;;25.42;;
59408;SDS011;45213;32.654;-115.458;2023-01-24T15:36:24;107.97;;;22.85;;
59408;SDS011;45213;32.654;-115.458;2023-01-24T15:39:00;62.05;;;21.73;;
59408;SDS011;45213;32.654;-115.458;2023-01-24T15:41:37;56.28;;;19.33;;
59408;SDS011;45213;32.654;-115.458;2023-01-24T15:44:22;71.97;;;19.35;;
59408;SDS011;45213;32.654;-115.458;2023-01-24T15:46:55;45.78;;;15.15;;
59408;SDS011;45213;32.654;-115.458;2023-01-24T15:50:00;53.03;;;15.65;;
59408;SDS011;45213;32.654;-115.458;2023-01-24T15:55:47;40.53;;;14.75;;
59408;SDS011;45213;32.654;-115.458;2023-01-24T15:58:14;45.25;;;15.52;;
59408;SDS011;45213;32.654;-115.458;2023-01-24T16:00:48;47.55;;;15.05;;
59408;SDS011;45213;32.654;-115.458;2023-01-24T16:03:19;36.08;;;15.57;;
59408;SDS011;45213;32.654;-115.458;2023-01-24T16:05:46;91.28;;;19.23;;
59408;SDS011;45213;32.654;-115.458;2023-01-24T16:08:12;58.85;;;15.68;;
59408;SDS011;45213;32.654;-115.458;2023-01-24T16:10:40;66.07;;;15.93;;
59408;SDS011;45213;32.654;-115.458;2023-01-24T16:13:50;47.17;;;16.27;;
59408;SDS011;45213;32.654;-115.458;2023-01-24T16:16:06;44.00;;;15.00;;
59408;SDS011;45213;32.654;-115.458;2023-01-24T16:18:36;40.42;;;14.18;;
59408;SDS011;45213;32.654;-115.458;2023-01-24T16:21:03;47.90;;;14.52;;
59408;SDS011;45213;32.654;-115.458;2023-01-24T16:23:30;42.53;;;13.82;;
59408;SDS011;45213;32.654;-115.458;2023-01-24T16:25:56;63.45;;;16.08;;
59408;SDS011;45213;32.654;-115.458;2023-01-24T16:28:24;66.47;;;14.93;;
59408;SDS011;45213;32.654;-115.458;2023-01-24T16:30:53;26.50;;;12.57;;
59408;SDS011;45213;32.654;-115.458;2023-01-24T16:33:26;39.42;;;13.38;;
59408;SDS011;45213;32.654;-115.458;2023-01-24T16:35:52;24.25;;;10.63;;
59408;SDS011;45213;32.654;-115.458;2023-01-24T16:38:19;33.08;;;10.05;;
59408;SDS011;45213;32.654;-115.458;2023-01-24T16:40:46;35.20;;;10.23;;
59408;SDS011;45213;32.654;-115.458;2023-01-24T16:43:19;58.55;;;18.15;;
59408;SDS011;45213;32.654;-115.458;2023-01-24T16:45:48;68.82;;;19.95;;
59408;SDS011;45213;32.654;-115.458;2023-01-24T16:48:16;60.08;;;19.52;;
59408;SDS011;45213;32.654;-115.458;2023-01-24T16:50:43;63.03;;;19.45;;
59408;SDS011;45213;32.654;-115.458;2023-01-24T16:53:11;60.78;;;20.08;;
59408;SDS011;45213;32.654;-115.458;2023-01-24T16:55:39;58.22;;;16.55;;
59408;SDS011;45213;32.654;-115.458;2023-01-24T16:58:07;44.72;;;15.18;;
59408;SDS011;45213;32.654;-115.458;2023-01-24T17:00:34;48.75;;;13.85;;
59408;SDS011;45213;32.654;-115.458;2023-01-24T17:03:02;44.65;;;12.80;;
59408;SDS011;45213;32.654;-115.458;2023-01-24T17:05:30;32.85;;;7.40;;